Tiempo atmosférico en la estación meteorológica de Huelva, Ronda Este, Huelva (19 m.)



Fecha
DESCASC
Temp. máxima en grados centígrados (hora)
DESCASC
Temp. mínima en grados centígrados (hora)
DESCASC
Temp. media en grados centígrados
DESCASC
Racha de viento máxima en m/sg (hora)
DESCASC
Velocidad máxima media en intervalos de 10 minutos(hora)
DESCASC
Precipitaciones diarias en mm
DESCASC
Precipitaciones de 00:00 a 06:00 en mm
DESCASC
Precipitaciones de 06:00 a 12:00 en mm
DESCASC
Precipitaciones de 12:00 a 18:00 en mm
DESCASC
Precipitaciones de 18:00 a 24:00 en mm
DESCASC
17-09-2020 26.6 (14:50) 19.2 (06:10) 22.9 10.28 (23:30) 6.67 (15:30) 0 0 0 0 0
16-09-2020 28.3 (15:00) 17.4 (07:50) 22.8 8.61 (14:30) 6.11 (14:30) 0 0 0 0 0
15-09-2020 29.4 (16:30) 16.9 (07:00) 23.1 9.72 (14:00) 5.28 (18:00) 0 0 0 0 0
14-09-2020 29.1 (13:20) 19.5 (00:00) 24.3 11.94 (15:50) 8.06 (15:30) 0 0 0 0 0
13-09-2020 30.6 (13:30) 21.4 (00:00) 26 11.94 (15:30) 7.78 (15:30) 0 0 0 0 0
12-09-2020 34.4 (13:40) 18.6 (00:00) 26.5 8.33 (14:40) 5.28 (14:10) 0 0 0 0 0
11-09-2020 32.9 (17:30) 18.5 (00:00) 25.7 7.22 (18:40) 5 (18:30) 0 0 0 0 0
10-09-2020 31.9 (15:40) 19 (00:00) 25.4 8.06 (17:20) 5.83 (17:20) 0 0 0 0 0
09-09-2020 32.8 (15:10) 19.9 (00:00) 26.3 8.33 (19:20) 5.83 (19:30) 0 0 0 0 0
08-09-2020 32.2 (15:30) 19.2 (00:00) 25.7 9.44 (16:10) 6.11 (16:30) 0 0 0 0 0
07-09-2020 31 (16:10) 19 (08:30) 25 11.11 (18:00) 7.78 (21:00) 0 0 0 0 0
06-09-2020 32.5 (13:20) 18.3 (00:00) 25.4 8.33 (15:50) 6.11 (18:30) 0 0 0 0 0
05-09-2020 35.2 (15:50) 18.3 (00:00) 26.8 8.33 (16:20) 6.39 (16:10) 0 0 0 0 0
04-09-2020 35.4 (16:20) 18.3 (00:00) 26.9 9.44 (18:30) 6.39 (18:20) 0 0 0 0 0
03-09-2020 35.3 (15:50) 16.8 (00:00) 26 8.61 (16:30) 6.11 (19:00) 0 0 0 0 0
02-09-2020 29.4 (17:30) 15.7 (00:00) 22.5 8.33 (14:50) 5.28 (14:50) 0 0 0 0 0
01-09-2020 30.6 (15:00) 18.5 (00:00) 24.6 11.67 (17:00) 8.33 (17:30) 0 0 0 0 0
31-08-2020 33 (15:50) 15.6 (00:00) 24.3 9.17 (18:50) 6.39 (18:50) 0 0 0 0 0
30-08-2020 34.2 (16:40) 18.8 (00:00) 26.5 8.61 (18:50) 5.56 (19:00) 0 0 0 0 0
29-08-2020 30.7 (17:20) 16.3 (00:00) 23.5 12.22 (18:20) 6.11 (15:10) 0 0 0 0 0
28-08-2020 35 (16:20) 20.2 (00:00) 27.6 13.61 (11:20) 7.78 (15:50) 0 0 0 0 0
27-08-2020 39.6 (16:10) 22.8 (00:00) 31.2 10.56 (23:10) 6.11 (15:50) 0 0 0 0 0
26-08-2020 34.8 (16:00) 19.7 (00:00) 27.3 8.06 (14:40) 5.56 (14:30) 0 0 0 0 0
25-08-2020 34.1 (16:50) 19.4 (00:00) 26.7 8.61 (18:50) 6.11 (17:20) 0 0 0 0 0
24-08-2020 33 (17:30) 20.1 (00:00) 26.6 10 (13:00) 5.56 (18:30) 0 0 0 0 0
23-08-2020 38.9 (16:10) 18.9 (00:00) 28.9 11.11 (15:20) 6.11 (16:10) 0 0 0 0 0
22-08-2020 36 (16:20) 21.5 (00:00) 28.8 8.33 (16:30) 6.11 (16:40) 0 0 0 0 0
21-08-2020 31.3 (14:00) 20.8 (00:00) 26 9.44 (18:00) 6.94 (16:00) 0 0 0 0 0

Gráficas

Temp. máximas Temp. mínimas Temp. medias Precipitaciones Rachas de viento máximas Velocidades máximas media en intervalos de 10 minutos

Datos horarios

Fecha y hora oficial Temperatura (ºC) Velocidad del viento (km/h) Dirección del viento Racha (km/h) Dirección de racha Precipitación (mm) Presión (hPa) Tendencia (hPa) Humedad (%)
2020-09-19 23:00:00 21.1 9 Noroeste 28 Oeste 0 1017 1.5 78
2020-09-19 22:00:00 21.7 18 Oeste 30 Sudoeste 0 1016.2 1 78
2020-09-19 21:00:00 21.7 18 Sudoeste 37 Oeste 0 1015.6 0.7 77
2020-09-19 20:00:00 22.3 23 Sudoeste 39 Sudoeste 0 1015.5 0.4 68
2020-09-19 19:00:00 23.3 26 Sudoeste 39 Sudoeste 0 1015.2 -0.2 68
2020-09-19 18:00:00 24.2 25 Sudoeste 38 Oeste 0 1014.9 -0.7 67
2020-09-19 17:00:00 25 22 Sudoeste 33 Sur 0 1015.1 -1.1 61
2020-09-19 16:00:00 25.6 18 Sudoeste 30 Sur 0 1015.4 -1.2 60
2020-09-19 15:00:00 25.8 17 Sudoeste 26 Sudoeste 0 1015.6 -0.8 55
2020-09-19 14:00:00 25.4 13 Sudoeste 22 Sur 0 1016.2 0.3 63
2020-09-19 13:00:00 24 5 Noroeste 19 Oeste 0 1016.6 1.2 68
2020-09-19 12:00:00 22.5 4 Sudeste 9 Sudeste 0 1016.4 1.5 73
2020-09-19 11:00:00 22.1 4 Sudeste 9 Este 0 1015.9 -- 74
2020-09-19 10:00:00 20.6 5 Sudeste 9 Sudeste 0 1015.4 -- 76
2020-09-19 09:00:00 19.8 5 Sudeste 14 Oeste 0 1014.9 -- 76
2020-09-19 08:00:00 19.7 3 Norte 10 Noroeste 0 1014.3 -- 89
2020-09-19 07:00:00 20.1 6 Noroeste 12 Oeste 0 1013.7 -- 86
2020-09-19 06:00:00 19.7 8 Noroeste 13 Oeste 0 1013.8 -- 88
2020-09-19 05:00:00 19.8 6 Oeste 17 Oeste 0 1013.8 -- 86
2020-09-19 04:00:00 20.6 12 Oeste 25 Oeste 0 1013.7 -- 82
2020-09-19 03:00:00 20.7 17 Oeste 27 Oeste 0 1013.8 -- 82
2020-09-19 02:00:00 20.9 17 Sudoeste 30 Oeste 0 1013.9 -- 82
2020-09-19 01:00:00 21.1 20 Sudoeste 30 Sudoeste 0 1013.8 -- 81
2020-09-19 00:00:00 21.1 18 Sudoeste 35 Oeste 0 1013.7 -- 83
2020-09-18 23:00:00 20.9 21 Sudoeste 37 Sudoeste 0 1013.1 -- 82
2020-09-18 22:00:00 20.9 18 Sudoeste 41 Sudoeste 0 1012.4 -- 83
2020-09-18 21:00:00 20.5 31 Sudoeste 51 Sudoeste 0.2 1011.6 -- 83
2020-09-18 20:00:00 22 27 Sudoeste 59 Sudoeste 0.4 1010.9 -- 76
2020-09-18 19:00:00 22.5 26 Sudoeste 48 Sudoeste 0 1010.5 -- 69
2020-09-18 18:00:00 23.9 27 Sudoeste 52 Sudoeste 0 1010 -- 68
2020-09-18 17:00:00 24.5 26 Sudoeste 51 Sudoeste 0 1009.8 -- 68
2020-09-18 16:00:00 24.7 31 Sudoeste 53 Sur 0 1009.4 -- 66
2020-09-18 15:00:00 24.2 31 Sudoeste 47 Sur 0 1009.3 -- 75
2020-09-18 14:00:00 21.9 25 Sudoeste 51 Sudoeste 0.4 1009.1 -- 85
2020-09-18 13:00:00 18.5 30 Sudoeste 68 Sudoeste 13.4 1009.3 -- 91
2020-09-18 12:00:00 22.6 30 Sur 55 Sur 0.2 1008.8 -- 82
2020-09-18 11:00:00 21.2 36 Sur 60 Sur 3.8 1008.5 -- 90
2020-09-18 10:00:00 22.7 26 Sur 47 Sur 0 1008.2 -- 79
2020-09-18 09:00:00 20.2 14 Sudeste 22 Sudeste 0 1008.2 -- 84
2020-09-18 08:00:00 19.2 6 Este 13 Sudeste 0 1008.3 -- 85
2020-09-18 07:00:00 19.4 9 Sudeste 14 Sudeste 0 1008.1 -- 83
2020-09-18 06:00:00 20.2 7 Sur 12 Sur 0 1008.6 -- 78
2020-09-18 05:00:00 20.2 8 Sur 14 Sur 0 1008.3 -- 79
2020-09-18 04:00:00 20.7 7 Sur 12 Sudoeste 0 1008.8 -- 80
2020-09-18 03:00:00 21.1 9 Oeste 17 Sudoeste 0 1009.3 -- 84
2020-09-18 02:00:00 21.4 10 Oeste 22 Sudoeste 0 1009 -- 84
2020-09-18 01:00:00 22 12 Sudoeste 31 Sudoeste 0 1009.3 -- 81
2020-09-18 00:00:00 22.5 21 Sur 37 Sur 0 1009.2 -- 86
2020-09-17 23:00:00 22.7 21 Sur 35 Sur 0 1009.1 -- 85
2020-09-17 22:00:00 22.5 11 Sur 27 Sur 0 1008.7 -- 86
2020-09-17 21:00:00 22.8 14 Sur 22 Sudoeste 0 1008.9 -- 84
2020-09-17 20:00:00 23.1 17 Sur 31 Sudoeste 0 1008.8 -- 81
2020-09-17 19:00:00 23.7 19 Sur 31 Sudoeste 0 1008.9 -- 80
2020-09-17 18:00:00 24.3 18 Sur 36 Sur 0 1009.1 -- 77
2020-09-17 17:00:00 24.8 23 Sur 34 Sur 0 1009.2 -- 72
2020-09-17 16:00:00 25.1 20 Sur 33 Sur 0 1009.4 -- 68
2020-09-17 15:00:00 26.3 21 Sur 34 Sur 0 1009.6 -- 63
2020-09-17 14:00:00 26.2 19 Sur 28 Sur 0 1010.1 -- 62
2020-09-17 13:00:00 25.8 15 Sur 27 Sur 0 1010.4 -- 63
2020-09-17 12:00:00 24.9 17 Sur 26 Sur 0 1011 -- 66
2020-09-17 11:00:00 23.5 13 Sur 19 Sur 0 1011 -- 75
2020-09-17 10:00:00 21 5 Este 9 Nordeste 0 1010.9 -- 82
2020-09-17 09:00:00 19.7 6 Nordeste 8 Este 0 1010.7 -- 83
2020-09-17 08:00:00 19.5 4 Nordeste 8 Nordeste 0 1010.6 -- 83
2020-09-17 07:00:00 19.6 3 Este 6 Oeste 0 1010.5 -- 85
2020-09-17 06:00:00 19.3 0 Calma 13 Sudeste 0 1010.4 -- 85
2020-09-17 05:00:00 19.7 4 Sur 11 Sudeste 0 1010.6 -- 82
2020-09-17 04:00:00 20.3 6 Sudeste 8 Sudeste 0 1011 -- 82
2020-09-17 03:00:00 21.1 5 Sudeste 9 Sudeste 0 1011.8 -- 79
2020-09-17 02:00:00 21.2 7 Sudeste 9 Sur 0 1012.4 -- 80
2020-09-17 01:00:00 20.6 3 Sur 8 Sudoeste 0 1012.7 -- 79
2020-09-17 00:00:00 21.2 6 Sur 9 Sudoeste 0 1012.8 -- 76
2020-09-16 23:00:00 21.9 5 Sur 12 Sur 0 1012.9 -- 73
2020-09-16 22:00:00 22.7 6 Sur 12 Sur 0 1012.7 -- 74
2020-09-16 21:00:00 22.9 8 Sur 12 Sur 0 1012.2 -- 74
2020-09-16 20:00:00 23.8 8 Sur 19 Oeste 0 1012.4 -- 66
2020-09-16 19:00:00 24.2 13 Sudoeste 18 Sudoeste 0 1012.9 -- 68
2020-09-16 18:00:00 24.7 12 Sudoeste 19 Sudoeste 0 1012.9 -- 70
2020-09-16 17:00:00 25.4 16 Sudoeste 25 Sudoeste 0 1013.2 -- 68
2020-09-16 16:00:00 27.2 17 Sur 29 Sudoeste 0 1013.5 -- 63
2020-09-16 15:00:00 28.3 20 Sur 31 Sur 0 1013.9 -- 54
2020-09-16 14:00:00 27.6 19 Sur 30 Sur 0 1014.3 -- 59
2020-09-16 13:00:00 26.8 17 Sur 25 Sur 0 1015.2 -- 61
2020-09-16 12:00:00 25.6 10 Sur 18 Sur 0 1015.5 -- 59
2020-09-16 11:00:00 22.5 3 Nordeste 10 Nordeste 0 1015.8 -- 60
2020-09-16 10:00:00 20.1 7 Nordeste 11 Nordeste 0 1015.7 -- 65
2020-09-16 09:00:00 18.2 4 Nordeste 7 Nordeste 0 1015.9 -- 72
2020-09-16 08:00:00 17.4 3 Nordeste 8 Sudeste 0 1015.8 -- 75
2020-09-16 07:00:00 18.6 5 Norte 11 Norte 0 1015.6 -- 73
2020-09-16 06:00:00 19 7 Norte 13 Norte 0 1015.5 -- 72
2020-09-16 05:00:00 19.3 6 Nordeste 19 Norte 0 1016.1 -- 70
2020-09-16 04:00:00 19.9 8 Oeste 17 Oeste 0 1016.7 -- 71
2020-09-16 03:00:00 20.3 7 Noroeste 13 Noroeste 0 1017.1 -- 69
2020-09-16 02:00:00 20 6 Oeste 8 Noroeste 0 1017.5 -- 72
2020-09-16 01:00:00 20.3 0 Calma 6 Nordeste 0 1017.4 -- 79
2020-09-16 00:00:00 20.9 4 Nordeste 8 Nordeste 0 1017.3 -- 75
2020-09-15 23:00:00 22.2 6 Oeste 17 Oeste 0 1017.3 -- 73
2020-09-15 22:00:00 23.2 9 Oeste 18 Oeste 0 1016.8 -- 65
2020-09-15 21:00:00 24.2 11 Oeste 22 Oeste 0 1016.3 -- 56
2020-09-15 20:00:00 26 11 Sudoeste 19 Oeste 0 1016.1 -- 50
2020-09-15 19:00:00 27.1 17 Sudoeste 24 Sudoeste 0 1016.2 -- 49
2020-09-15 18:00:00 27.9 19 Sudoeste 27 Sudoeste 0 1016.5 -- 49
2020-09-15 17:00:00 28.5 17 Sudoeste 29 Sudoeste 0 1016.9 -- 49
2020-09-15 16:00:00 28.8 17 Sudoeste 31 Sur 0 1017.5 -- 51
2020-09-15 15:00:00 28.7 15 Sur 27 Sudoeste 0 1018.2 -- 52
2020-09-15 14:00:00 28.4 18 Sudoeste 35 Sudoeste 0 1019.1 -- 55
2020-09-15 13:00:00 27.4 12 Sur 22 Sudoeste 0 1019.4 -- 56
2020-09-15 12:00:00 25.3 8 Sur 17 Sur 0 1019.7 -- 62
2020-09-15 11:00:00 22.4 7 Noroeste 14 Nordeste 0 1019.6 -- 71
2020-09-15 10:00:00 19.6 8 Nordeste 15 Norte 0 1018.9 -- 79
2020-09-15 09:00:00 17.3 9 Norte 17 Norte 0 1019 -- 86
2020-09-15 08:00:00 17.5 9 Norte 17 Norte 0 1018.3 -- 87
2020-09-15 07:00:00 17 9 Norte 15 Noroeste 0 1018.2 -- 93
2020-09-15 06:00:00 17.5 11 Noroeste 17 Noroeste 0 1018 -- 92
2020-09-15 05:00:00 17.8 6 Norte 11 Norte 0 1018.2 -- 89
2020-09-15 04:00:00 18.3 7 Norte 13 Norte 0 1018.4 -- 88
2020-09-15 03:00:00 19.3 3 Norte 5 Noroeste 0 1018.7 -- 92
2020-09-15 02:00:00 19.4 4 Nordeste 8 Nordeste 0 1018.8 -- 86
2020-09-15 01:00:00 19.9 7 Este 10 Este 0 1018.7 -- 83
2020-09-15 00:00:00 20.8 3 Sur 10 Sudoeste 0 1018.4 -- 84
2020-09-14 23:00:00 21.8 6 Sudoeste 14 Oeste 0 1017.9 -- 82
2020-09-14 22:00:00 22.1 9 Sudoeste 18 Sudoeste 0 1017 -- 79
2020-09-14 21:00:00 22.6 12 Sudoeste 21 Sudoeste 0 1016.5 -- 70
2020-09-14 20:00:00 24 15 Sudoeste 26 Sudoeste 0 1016.3 -- 69
2020-09-14 19:00:00 26.2 17 Sudoeste 31 Sudoeste 0 1015.9 -- 62
2020-09-14 18:00:00 26.9 18 Sudoeste 33 Sudoeste 0 1016 -- 65
2020-09-14 17:00:00 27.8 22 Sudoeste 39 Sur 0 1016.2 -- 65
2020-09-14 16:00:00 27.7 26 Sur 43 Sur 0 1016.9 -- 67
2020-09-14 15:00:00 28.1 25 Sur 40 Sur 0 1017.4 -- 66
2020-09-14 14:00:00 28.6 22 Sur 31 Sur 0 1017.9 -- 61
2020-09-14 13:00:00 28.9 15 Sur 32 Sur 0 1017.9 -- 53
2020-09-14 12:00:00 28.4 19 Sur 27 Sur 0 1018 -- 53
2020-09-14 11:00:00 25.8 6 Oeste 13 Noroeste 0 1017.7 -- 65
2020-09-14 10:00:00 22.9 5 Norte 10 Norte 0 1017.2 -- 75
2020-09-14 09:00:00 20.7 4 Norte 9 Norte 0 1016.8 -- 84
2020-09-14 08:00:00 19.6 5 Nordeste 10 Nordeste 0 1016 -- 86
2020-09-14 07:00:00 19.9 6 Nordeste 10 Nordeste 0 1016 -- 84
2020-09-14 06:00:00 20.2 5 Nordeste 12 Norte 0 1016.2 -- 83
2020-09-14 05:00:00 20.9 6 Norte 12 Noroeste 0 1016.5 -- 84
2020-09-14 04:00:00 21.2 3 Norte 8 Nordeste 0 1016.5 -- 82
2020-09-14 03:00:00 21.5 4 Norte 12 Noroeste 0 1016.9 -- 81
2020-09-14 02:00:00 22.6 7 Noroeste 12 Noroeste 0 1017.1 -- 81
2020-09-14 01:00:00 22.9 5 Noroeste 9 Noroeste 0 1017 -- 80
2020-09-14 00:00:00 23.5 5 Oeste 14 Sudoeste 0 1017.2 -- 77
2020-09-13 23:00:00 23.9 9 Sudoeste 19 Oeste 0 1017.2 -- 78
2020-09-13 22:00:00 24.1 10 Sudoeste 25 Sudoeste 0 1016.5 -- 77
2020-09-13 21:00:00 24.3 12 Sudoeste 27 Sudoeste 0 1015.8 -- 77
2020-09-13 20:00:00 25.5 14 Sur 31 Sur 0 1015.7 -- 71
2020-09-13 19:00:00 26.5 20 Sur 32 Sur 0 1015.5 -- 67
2020-09-13 18:00:00 27.7 18 Sudoeste 38 Sur 0 1015.8 -- 64
2020-09-13 17:00:00 27.9 24 Sur 41 Sur 0 1015.9 -- 63
2020-09-13 16:00:00 28.4 28 Sur 43 Sur 0 1016.3 -- 59
2020-09-13 15:00:00 28.2 24 Sur 40 Sudoeste 0 1016.6 -- 59
2020-09-13 14:00:00 30 22 Sur 32 Sur 0 1016.3 -- 48
2020-09-13 13:00:00 29.9 20 Sur 32 Sur 0 1016.3 -- 46
2020-09-13 12:00:00 28.8 18 Sur 31 Sur 0 1016.6 -- 47
2020-09-13 11:00:00 26.2 3 Oeste 7 Nordeste 0 1016.1 -- 55
2020-09-13 10:00:00 23.7 6 Nordeste 8 Nordeste 0 1015.5 -- 50
2020-09-13 09:00:00 22 6 Nordeste 10 Nordeste 0 1015.1 -- 54
2020-09-13 08:00:00 21.6 3 Noroeste 12 Nordeste 0 1014.6 -- 57
2020-09-13 07:00:00 21.6 6 Nordeste 13 Nordeste 0 1014.4 -- 59
2020-09-13 06:00:00 22.2 7 Nordeste 9 Nordeste 0 1014.3 -- 58
2020-09-13 05:00:00 22.4 4 Nordeste 8 Oeste 0 1014 -- 56
2020-09-13 04:00:00 22.2 4 Este 12 Sur 0 1013.9 -- 57
2020-09-13 03:00:00 22.7 9 Norte 14 Norte 0 1013.6 -- 57
2020-09-13 02:00:00 22.6 3 Sur 10 Norte 0 1014 -- 55
2020-09-13 01:00:00 24 3 Norte 7 Noroeste 0 1013.9 -- 55
2020-09-13 00:00:00 24.2 2 Oeste 7 Nordeste 0 1013.6 -- 55
2020-09-12 23:00:00 25.4 5 Nordeste 6 Norte 0 1013.3 -- 59
2020-09-12 22:00:00 26.1 3 Este 8 Oeste 0 1012.6 -- 50
2020-09-12 21:00:00 26.9 8 Oeste 20 Oeste 0 1012.1 -- 46
2020-09-12 20:00:00 27.7 15 Oeste 23 Sudoeste 0 1011.7 -- 46
2020-09-12 19:00:00 28.9 14 Sudoeste 21 Sudoeste 0 1011.3 -- 40
2020-09-12 18:00:00 30.7 12 Sudoeste 23 Sudoeste 0 1011.2 -- 38
2020-09-12 17:00:00 31.4 15 Sudoeste 26 Sudoeste 0 1011.4 -- 35
2020-09-12 16:00:00 31.7 13 Sudoeste 25 Sudoeste 0 1011.5 -- 31
2020-09-12 15:00:00 32.9 14 Sudoeste 30 Sur 0 1011.7 -- 29
2020-09-12 14:00:00 34.1 15 Sudoeste 25 Sudeste 0 1011.8 -- 31
2020-09-12 13:00:00 32.8 12 Este 20 Este 0 1012.1 -- 25
2020-09-12 12:00:00 31 8 Este 18 Este 0 1012.2 -- 31
2020-09-12 11:00:00 27.4 9 Este 18 Nordeste 0 1012.1 -- 40
2020-09-12 10:00:00 23.6 11 Nordeste 20 Este 0 1011.7 -- 46
2020-09-12 09:00:00 19.6 7 Nordeste 11 Nordeste 0 1011.3 -- 54
2020-09-12 08:00:00 18.7 4 Norte 8 Nordeste 0 1010.9 -- 58
2020-09-12 07:00:00 18.8 5 Nordeste 22 Norte 0 1010.4 -- 60
2020-09-12 06:00:00 21.9 10 Noroeste 19 Norte 0 1010.4 -- 54
2020-09-12 05:00:00 22.1 8 Noroeste 10 Noroeste 0 1010.4 -- 55
2020-09-12 04:00:00 22.6 4 Oeste 7 Noroeste 0 1010.5 -- 53
2020-09-12 03:00:00 23 6 Oeste 10 Oeste 0 1010.6 -- 51
2020-09-12 02:00:00 23.5 7 Noroeste 12 Oeste 0 1010.7 -- 49
2020-09-12 01:00:00 23.7 7 Noroeste 15 Noroeste 0 1010.9 -- 50
2020-09-12 00:00:00 23.8 7 Noroeste 14 Noroeste 0 1010.8 -- 52
2020-09-11 23:00:00 25.2 7 Oeste 13 Oeste 0 1010.3 -- 49
2020-09-11 22:00:00 26.4 7 Sudoeste 12 Oeste 0 1009.8 -- 44
2020-09-11 21:00:00 27.4 8 Oeste 15 Sudoeste 0 1009.3 -- 41
2020-09-11 20:00:00 29.2 13 Sudoeste 24 Sudoeste 0 1009.4 -- 36
2020-09-11 19:00:00 30.2 18 Sudoeste 26 Sudoeste 0 1009.3 -- 32
2020-09-11 18:00:00 31.8 18 Sudoeste 25 Sudoeste 0 1009.4 -- 30
2020-09-11 17:00:00 32.4 14 Sudoeste 22 Oeste 0 1009.7 -- 33
2020-09-11 16:00:00 32.1 14 Sudoeste 24 Sudoeste 0 1010.1 -- 35
2020-09-11 15:00:00 32.6 15 Sudoeste 24 Sudoeste 0 1010.8 -- 34
2020-09-11 14:00:00 31.3 4 Sudeste 13 Este 0 1011.3 -- 32
2020-09-11 13:00:00 29.4 4 Sudoeste 8 Oeste 0 1011.9 -- 37
2020-09-11 12:00:00 26.8 3 Este 13 Sudoeste 0 1012.2 -- 43
2020-09-11 11:00:00 23.6 6 Este 10 Nordeste 0 1012.1 -- 56
2020-09-11 10:00:00 21.6 4 Nordeste 9 Nordeste 0 1011.6 -- 58
2020-09-11 09:00:00 19.5 6 Nordeste 12 Nordeste 0 1011.4 -- 63
2020-09-11 08:00:00 18.6 5 Nordeste 11 Nordeste 0 1011 -- 61
2020-09-11 07:00:00 21.6 7 Noroeste 13 Noroeste 0 1010.6 -- 55
2020-09-11 06:00:00 20.5 6 Oeste 9 Oeste 0 1011 -- 55
2020-09-11 05:00:00 21.1 3 Sudeste 21 Nordeste 0 1010.9 -- 53
2020-09-11 04:00:00 23.3 6 Norte 17 Oeste 0 1010.6 -- 48
2020-09-11 03:00:00 24.1 10 Noroeste 19 Noroeste 0 1011.2 -- 43
2020-09-11 02:00:00 25 9 Noroeste 20 Oeste 0 1011.8 -- 39
2020-09-11 01:00:00 24.5 11 Noroeste 20 Noroeste 0 1012.1 -- 48
2020-09-11 00:00:00 24.9 8 Noroeste 15 Noroeste 0 1012.2 -- 61
2020-09-10 23:00:00 24 3 Sudeste 9 Oeste 0 1012.4 -- 72
2020-09-10 22:00:00 25.2 5 Sudoeste 14 Oeste 0 1012 -- 58
2020-09-10 21:00:00 26.8 8 Sudoeste 25 Oeste 0 1011.5 -- 46
2020-09-10 20:00:00 28.2 17 Sudoeste 28 Oeste 0 1011.3 -- 38
2020-09-10 19:00:00 30 20 Sudoeste 29 Oeste 0 1011.8 -- 32
2020-09-10 18:00:00 31 19 Sudoeste 29 Sudoeste 0 1012.3 -- 30
2020-09-10 17:00:00 31.5 20 Sudoeste 27 Oeste 0 1013 -- 28
2020-09-10 16:00:00 31.4 18 Sudoeste 24 Sudoeste 0 1013.9 -- 30
2020-09-10 15:00:00 31.1 14 Sudoeste 23 Sudoeste 0 1014.4 -- 30
2020-09-10 14:00:00 30.4 12 Oeste 20 Sudoeste 0 1015.4 -- 31
2020-09-10 13:00:00 29.9 9 Sudoeste 18 Sur 0 1016.2 -- 32
2020-09-10 12:00:00 28.2 9 Sur 16 Sur 0 1016.8 -- 36
2020-09-10 11:00:00 25.8 5 Oeste 10 Norte 0 1016.7 -- 49
2020-09-10 10:00:00 22.7 6 Norte 10 Norte 0 1016.5 -- 64
2020-09-10 09:00:00 20 4 Nordeste 13 Noroeste 0 1016.6 -- 71
2020-09-10 08:00:00 19.7 6 Noroeste 8 Noroeste 0 1016 -- 77
2020-09-10 07:00:00 19.5 6 Nordeste 9 Nordeste 0 1015.5 -- 69
2020-09-10 06:00:00 20.4 2 Noroeste 7 Noroeste 0 1015.1 -- 69
2020-09-10 05:00:00 22.2 6 Norte 10 Norte 0 1015.1 -- 63
2020-09-10 04:00:00 21.4 2 Oeste 8 Norte 0 1015.3 -- 67
2020-09-10 03:00:00 22.5 6 Noroeste 10 Noroeste 0 1015.7 -- 64
2020-09-10 02:00:00 22.6 5 Sudoeste 13 Sudoeste 0 1016.4 -- 65
2020-09-10 01:00:00 23.6 6 Oeste 13 Sudoeste 0 1016.3 -- 62
2020-09-10 00:00:00 24.6 10 Sudoeste 19 Sudoeste 0 1016.4 -- 57
2020-09-09 23:00:00 23.7 6 Sur 14 Sudoeste 0 1016.2 -- 66
2020-09-09 22:00:00 24.5 9 Sudoeste 23 Sudoeste 0 1015.8 -- 60
2020-09-09 21:00:00 25.3 13 Sudoeste 26 Sudoeste 0 1015.2 -- 56
2020-09-09 20:00:00 26.8 17 Sudoeste 30 Sudoeste 0 1014.8 -- 48
2020-09-09 19:00:00 29.5 20 Sudoeste 28 Sudoeste 0 1014.8 -- 41
2020-09-09 18:00:00 30.4 18 Sudoeste 27 Sudoeste 0 1014.9 -- 39
2020-09-09 17:00:00 30.7 21 Sudoeste 30 Sudoeste 0 1015.4 -- 39
2020-09-09 16:00:00 31.4 19 Sudoeste 29 Sudoeste 0 1015.8 -- 42
2020-09-09 15:00:00 32.5 11 Sur 26 Sur 0 1016.1 -- 38
2020-09-09 14:00:00 30.9 6 Este 17 Este 0 1016.8 -- 40
2020-09-09 13:00:00 29.7 8 Sudeste 16 Este 0 1017.4 -- 44
2020-09-09 12:00:00 27.9 7 Este 15 Este 0 1017.9 -- 50
2020-09-09 11:00:00 25.8 8 Nordeste 15 Nordeste 0 1018 -- 57
2020-09-09 10:00:00 23.4 6 Nordeste 15 Nordeste 0 1017.7 -- 68
2020-09-09 09:00:00 20.8 4 Nordeste 7 Nordeste 0 1017.1 -- 79
2020-09-09 08:00:00 19.9 5 Nordeste 8 Nordeste 0 1016.4 -- 82
2020-09-09 07:00:00 20 6 Nordeste 9 Nordeste 0 1015.9 -- 83
2020-09-09 06:00:00 20.3 6 Nordeste 10 Este 0 1016.2 -- 80
2020-09-09 05:00:00 20.8 3 Nordeste 10 Norte 0 1016.3 -- 77
2020-09-09 04:00:00 21.6 5 Norte 12 Noroeste 0 1016.2 -- 76
2020-09-09 03:00:00 22.1 9 Noroeste 12 Noroeste 0 1016.3 -- 75
2020-09-09 02:00:00 22.6 8 Oeste 13 Oeste 0 1016.4 -- 72
2020-09-09 01:00:00 23.2 8 Sudoeste 15 Sudoeste 0 1016.5 -- 72
2020-09-09 00:00:00 23.4 11 Noroeste 14 Oeste 0 1016.8 -- 73
2020-09-08 23:00:00 24.1 9 Sudoeste 17 Sudoeste 0 1016.1 -- 71
2020-09-08 22:00:00 24.3 10 Sur 19 Sudoeste 0 1015.4 -- 72
2020-09-08 21:00:00 25.1 14 Sur 28 Sudoeste 0 1014.7 -- 70
2020-09-08 20:00:00 26.9 15 Sur 28 Sur 0 1014.4 -- 62
2020-09-08 19:00:00 28.7 16 Sudoeste 30 Sur 0 1014.1 -- 55
2020-09-08 18:00:00 30 19 Sudoeste 32 Sur 0 1014.1 -- 50
2020-09-08 17:00:00 31 22 Sur 34 Sudoeste 0 1014.3 -- 46
2020-09-08 16:00:00 31.5 19 Sur 28 Sur 0 1014.6 -- 44
2020-09-08 15:00:00 31.6 14 Sudoeste 24 Sudoeste 0 1014.9 -- 42
2020-09-08 14:00:00 30.4 15 Sudoeste 28 Sudoeste 0 1015 -- 48
2020-09-08 13:00:00 30.1 6 Sudeste 16 Este 0 1015.2 -- 46
2020-09-08 12:00:00 28.2 7 Este 14 Este 0 1015.6 -- 52
2020-09-08 11:00:00 25.7 5 Este 12 Este 0 1015.6 -- 66
2020-09-08 10:00:00 22.6 7 Nordeste 12 Nordeste 0 1015.4 -- 74
2020-09-08 09:00:00 19.8 6 Nordeste 11 Nordeste 0 1015.1 -- 82
2020-09-08 08:00:00 19.5 6 Nordeste 10 Nordeste 0 1014.5 -- 83
2020-09-08 07:00:00 20.7 6 Nordeste 9 Sur 0 1014 -- 84
2020-09-08 06:00:00 21.2 6 Sur 9 Sur 0 1013.9 -- 87
2020-09-08 05:00:00 20.9 7 Este 11 Sudeste 0 1013.5 -- 81
2020-09-08 04:00:00 20.3 7 Este 16 Este 0 1013.1 -- 70
2020-09-08 03:00:00 22.1 6 Nordeste 11 Norte 0 1012.5 -- 59
2020-09-08 02:00:00 22.1 4 Norte 10 Nordeste 0 1012.6 -- 59
2020-09-08 01:00:00 22.7 5 Oeste 10 Nordeste 0 1012.7 -- 60
2020-09-08 00:00:00 24.2 9 Nordeste 12 Noroeste 0 1012.8 -- 51
2020-09-07 23:00:00 24.6 8 Oeste 10 Oeste 0 1012.3 -- 49
2020-09-07 22:00:00 25.5 5 Este 33 Oeste 0 1011.8 -- 51
2020-09-07 21:00:00 27 28 Oeste 40 Oeste 0 1011 -- 45
2020-09-07 20:00:00 27.4 13 Sudoeste 30 Sudoeste 0 1011.1 -- 51
2020-09-07 19:00:00 27.8 18 Sudoeste 40 Sudoeste 0 1011.1 -- 55
2020-09-07 18:00:00 28.7 23 Sudoeste 40 Sudoeste 0 1011.3 -- 47
2020-09-07 17:00:00 29.2 27 Sudoeste 36 Sudoeste 0 1011.6 -- 43
2020-09-07 16:00:00 30.6 19 Sudoeste 28 Sudoeste 0 1012.2 -- 44
2020-09-07 15:00:00 30.6 18 Sudoeste 24 Sudoeste 0 1013 -- 42
2020-09-07 14:00:00 29.2 17 Sudoeste 27 Oeste 0 1013.5 -- 45
2020-09-07 13:00:00 28.8 14 Sudoeste 22 Sudoeste 0 1014 -- 48
2020-09-07 12:00:00 27.3 13 Sudoeste 20 Sudoeste 0 1014 -- 54
2020-09-07 11:00:00 25.7 11 Oeste 18 Oeste 0 1013.8 -- 58
2020-09-07 10:00:00 23 6 Noroeste 9 Noroeste 0 1013.4 -- 60
2020-09-07 09:00:00 19.4 2 Este 4 Este 0 1013.1 -- 70
2020-09-07 08:00:00 19.3 0 Calma 11 Noroeste 0 1012.4 -- 73
2020-09-07 07:00:00 20.2 8 Noroeste 10 Noroeste 0 1012.2 -- 71
2020-09-07 06:00:00 20.2 6 Oeste 9 Oeste 0 1012.1 -- 72
2020-09-07 05:00:00 20.6 5 Noroeste 7 Noroeste 0 1012.4 -- 76
2020-09-07 04:00:00 20.3 2 Sudoeste 9 Noroeste 0 1012.6 -- 71
2020-09-07 03:00:00 22.3 7 Noroeste 10 Noroeste 0 1012.9 -- 69
2020-09-07 02:00:00 22 0 Calma 4 Sur 0 1013.1 -- 70
2020-09-07 01:00:00 23 3 Oeste 10 Noroeste 0 1013.2 -- 65
2020-09-07 00:00:00 23.7 7 Sudoeste 15 Oeste 0 1012.8 -- 65
2020-09-06 23:00:00 23.9 9 Oeste 19 Oeste 0 1012.7 -- 66
2020-09-06 22:00:00 24.4 12 Oeste 19 Oeste 0 1012.1 -- 66
2020-09-06 21:00:00 24.9 13 Sudoeste 24 Sudoeste 0 1011.1 -- 64
2020-09-06 20:00:00 26.1 17 Sudoeste 28 Sudoeste 0 1011 -- 59
2020-09-06 19:00:00 27.5 18 Sudoeste 30 Sudoeste 0 1011.1 -- 55
2020-09-06 18:00:00 29.2 19 Sudoeste 30 Sudoeste 0 1011 -- 48
2020-09-06 17:00:00 31.6 17 Sudoeste 30 Sur 0 1011.2 -- 40
2020-09-06 16:00:00 31.4 21 Sur 30 Sur 0 1011.7 -- 38
2020-09-06 15:00:00 31.5 18 Sudoeste 28 Sur 0 1012.2 -- 38
2020-09-06 14:00:00 31.6 18 Sudoeste 28 Sur 0 1012.2 -- 38
2020-09-06 13:00:00 32.1 5 Sur 18 Sur 0 1012.5 -- 34
2020-09-06 12:00:00 29.7 4 Sudeste 13 Este 0 1012.5 -- 40
2020-09-06 11:00:00 26.6 5 Nordeste 9 Norte 0 1012.4 -- 49
2020-09-06 10:00:00 22.9 5 Nordeste 12 Nordeste 0 1012.5 -- 61
2020-09-06 09:00:00 20.4 5 Nordeste 8 Nordeste 0 1012.3 -- 69
2020-09-06 08:00:00 18.7 6 Nordeste 8 Nordeste 0 1012 -- 73
2020-09-06 07:00:00 18.9 5 Nordeste 9 Nordeste 0 1011.9 -- 70
2020-09-06 06:00:00 19.1 7 Nordeste 11 Nordeste 0 1012.1 -- 71
2020-09-06 05:00:00 19.8 6 Nordeste 9 Nordeste 0 1012.2 -- 72
2020-09-06 04:00:00 21 5 Nordeste 7 Nordeste 0 1012 -- 74
2020-09-06 03:00:00 21.8 0 Calma 6 Oeste 0 1012.3 -- 74
2020-09-06 02:00:00 22.5 2 Sudoeste 12 Oeste 0 1012.8 -- 70
2020-09-06 01:00:00 23.9 10 Oeste 19 Oeste 0 1012.9 -- 67
2020-09-06 00:00:00 24.3 14 Sudoeste 22 Oeste 0 1012.8 -- 64
2020-09-05 23:00:00 24.5 14 Sudoeste 22 Sudoeste 0 1012.7 -- 62
2020-09-05 22:00:00 25.4 12 Sudoeste 21 Oeste 0 1012 -- 52
2020-09-05 21:00:00 26.6 15 Sudoeste 23 Oeste 0 1011.3 -- 48
2020-09-05 20:00:00 29.3 13 Sudoeste 22 Sudoeste 0 1011 -- 39
2020-09-05 19:00:00 31 15 Sudoeste 27 Sudoeste 0 1011.2 -- 35
2020-09-05 18:00:00 31.7 17 Sudoeste 28 Sudoeste 0 1011.6 -- 34
2020-09-05 17:00:00 32.9 18 Sudoeste 30 Sur 0 1012.3 -- 34
2020-09-05 16:00:00 33.7 21 Sudoeste 29 Sudoeste 0 1013.2 -- 34
2020-09-05 15:00:00 34 10 Este 23 Nordeste 0 1013.9 -- 27
2020-09-05 14:00:00 32.4 5 Este 20 Este 0 1014.7 -- 32
2020-09-05 13:00:00 30.7 5 Nordeste 17 Este 0 1015.6 -- 36
2020-09-05 12:00:00 28.7 6 Este 15 Este 0 1016 -- 39
2020-09-05 11:00:00 26 8 Nordeste 14 Nordeste 0 1016.1 -- 49
2020-09-05 10:00:00 21.9 4 Nordeste 9 Nordeste 0 1016.2 -- 65
2020-09-05 09:00:00 18.9 6 Nordeste 9 Nordeste 0 1016.1 -- 74
2020-09-05 08:00:00 18.6 5 Nordeste 9 Norte 0 1015.6 -- 80
2020-09-05 07:00:00 19 6 Nordeste 9 Nordeste 0 1015.5 -- 76
2020-09-05 06:00:00 18.9 7 Nordeste 10 Nordeste 0 1015.5 -- 76
2020-09-05 05:00:00 19.5 8 Nordeste 10 Nordeste 0 1015.7 -- 72
2020-09-05 04:00:00 20.5 5 Nordeste 8 Nordeste 0 1016.2 -- 72
2020-09-05 03:00:00 20.8 4 Nordeste 6 Nordeste 0 1016.5 -- 74
2020-09-05 02:00:00 21.5 3 Nordeste 6 Oeste 0 1017 -- 71
2020-09-05 01:00:00 22.6 7 Noroeste 11 Noroeste 0 1017.2 -- 69
2020-09-05 00:00:00 23.1 8 Noroeste 14 Noroeste 0 1017.4 -- 68
2020-09-04 23:00:00 24.2 8 Sudoeste 17 Oeste 0 1016.9 -- 65
2020-09-04 22:00:00 24.6 11 Sudoeste 19 Sudoeste 0 1016.3 -- 65
2020-09-04 21:00:00 25.5 11 Sudoeste 23 Sudoeste 0 1015.6 -- 61
2020-09-04 20:00:00 27.8 13 Sudoeste 28 Sur 0 1015.5 -- 53
2020-09-04 19:00:00 30.1 20 Sur 34 Sur 0 1015.5 -- 45
2020-09-04 18:00:00 32.3 19 Sudoeste 28 Sur 0 1015.4 -- 31
2020-09-04 17:00:00 34.2 19 Sudoeste 32 Sudoeste 0 1015.3 -- 26
2020-09-04 16:00:00 34.8 6 Nordeste 14 Este 0 1015.8 -- 19
2020-09-04 15:00:00 33.8 7 Sudeste 24 Sur 0 1016.7 -- 22
2020-09-04 14:00:00 32.9 12 Sudoeste 22 Sur 0 1017.6 -- 26
2020-09-04 13:00:00 31.5 9 Este 20 Este 0 1018 -- 25
2020-09-04 12:00:00 29.6 9 Nordeste 16 Nordeste 0 1018.2 -- 30
2020-09-04 11:00:00 26.6 12 Este 21 Este 0 1018 -- 42
2020-09-04 10:00:00 23.7 11 Nordeste 19 Nordeste 0 1017.8 -- 49
2020-09-04 09:00:00 20.7 6 Norte 12 Nordeste 0 1017.4 -- 48
2020-09-04 08:00:00 19 5 Norte 13 Norte 0 1016.9 -- 51
2020-09-04 07:00:00 18.4 5 Norte 8 Nordeste 0 1016.3 -- 51
2020-09-04 06:00:00 19 4 Nordeste 10 Nordeste 0 1016.2 -- 49
2020-09-04 05:00:00 19.6 4 Nordeste 10 Nordeste 0 1016.2 -- 47
2020-09-04 04:00:00 21.2 7 Nordeste 13 Nordeste 0 1016.3 -- 43
2020-09-04 03:00:00 21.7 5 Nordeste 14 Nordeste 0 1016.6 -- 43
2020-09-04 02:00:00 23.8 3 Este 11 Nordeste 0 1016.7 -- 37
2020-09-04 01:00:00 25.1 5 Norte 13 Norte 0 1016.8 -- 38
2020-09-04 00:00:00 24.9 9 Norte 15 Norte 0 1016.5 -- 45
2020-09-03 23:00:00 25.5 2 Este 14 Sur 0 1016 -- 47
2020-09-03 22:00:00 26.6 9 Sudoeste 17 Sudoeste 0 1015.5 -- 44
2020-09-03 21:00:00 28.2 10 Sur 24 Sur 0 1015 -- 37
2020-09-03 20:00:00 30.6 18 Sur 29 Sur 0 1014.7 -- 29
2020-09-03 19:00:00 31.8 22 Sur 29 Sur 0 1014.5 -- 28
2020-09-03 18:00:00 32.6 18 Sudoeste 30 Sur 0 1014.2 -- 31
2020-09-03 17:00:00 34.3 18 Sudoeste 31 Sur 0 1014.1 -- 24
2020-09-03 16:00:00 35 18 Sudoeste 27 Sudoeste 0 1014.4 -- 22
2020-09-03 15:00:00 34.4 12 Sudoeste 28 Sur 0 1015 -- 24
2020-09-03 14:00:00 33.5 10 Este 22 Nordeste 0 1015.5 -- 24
2020-09-03 13:00:00 31.7 12 Este 24 Este 0 1015.7 -- 28
2020-09-03 12:00:00 29.6 14 Este 30 Este 0 1016 -- 33
2020-09-03 11:00:00 26.6 10 Nordeste 17 Este 0 1016 -- 41
2020-09-03 10:00:00 21.9 6 Nordeste 12 Nordeste 0 1015.8 -- 43
2020-09-03 09:00:00 18.4 7 Nordeste 12 Nordeste 0 1015.3 -- 50
2020-09-03 08:00:00 17.3 8 Nordeste 12 Nordeste 0 1014.8 -- 52
2020-09-03 07:00:00 17.5 8 Nordeste 12 Nordeste 0 1014.5 -- 56
2020-09-03 06:00:00 18 9 Nordeste 14 Nordeste 0 1014.1 -- 63
2020-09-03 05:00:00 18.1 5 Nordeste 9 Nordeste 0 1014.1 -- 70
2020-09-03 04:00:00 19 6 Nordeste 9 Nordeste 0 1014.1 -- 76
2020-09-03 03:00:00 19 4 Nordeste 12 Sudeste 0 1014.1 -- 72
2020-09-03 02:00:00 20.5 4 Nordeste 5 Nordeste 0 1014.3 -- 63
2020-09-03 01:00:00 20.3 5 Sur 7 Sur 0 1014.1 -- 77
2020-09-03 00:00:00 21.1 2 Sudoeste 5 Sudeste 0 1013.9 -- 75
2020-09-02 23:00:00 21.5 2 Sur 5 Sur 0 1013.7 -- 74
2020-09-02 22:00:00 22.4 4 Sur 11 Sudoeste 0 1013 -- 61
2020-09-02 21:00:00 25 9 Sudoeste 21 Sudoeste 0 1012.3 -- 42
2020-09-02 20:00:00 27.6 13 Sudoeste 19 Sudoeste 0 1011.6 -- 35
2020-09-02 19:00:00 28.5 12 Sudoeste 21 Oeste 0 1011.6 -- 34
2020-09-02 18:00:00 29 12 Sudoeste 26 Sudoeste 0 1011.8 -- 39
2020-09-02 17:00:00 28.9 17 Sur 27 Sur 0 1011.8 -- 41
2020-09-02 16:00:00 29.1 17 Sur 28 Sur 0 1012.1 -- 40
2020-09-02 15:00:00 28.9 18 Sur 30 Sur 0 1012.3 -- 37
2020-09-02 14:00:00 28 18 Sur 27 Sur 0 1012.3 -- 45
2020-09-02 13:00:00 28.1 16 Sur 27 Sur 0 1012.5 -- 33
2020-09-02 12:00:00 25.8 8 Sur 16 Sur 0 1012.3 -- 59
2020-09-02 11:00:00 23.1 7 Este 14 Este 0 1011.9 -- 59
2020-09-02 10:00:00 20 7 Nordeste 15 Norte 0 1011.3 -- 55
2020-09-02 09:00:00 17.8 5 Norte 10 Norte 0 1011 -- 57
2020-09-02 08:00:00 15.9 5 Nordeste 14 Norte 0 1010.8 -- 65
2020-09-02 07:00:00 18.6 7 Norte 14 Nordeste 0 1010.1 -- 61
2020-09-02 06:00:00 17.4 6 Nordeste 28 Nordeste 0 1009.7 -- 60
2020-09-02 05:00:00 20.1 4 Noroeste 18 Noroeste 0 1009.4 -- 58
2020-09-02 04:00:00 21 9 Noroeste 20 Noroeste 0 1009.7 -- 56
2020-09-02 03:00:00 21.7 5 Norte 20 Noroeste 0 1009.8 -- 56
2020-09-02 02:00:00 19.6 3 Oeste 10 Oeste 0 1009.8 -- 66
2020-09-02 01:00:00 19.4 0 Calma 9 Sur 0 1009.9 -- 70
2020-09-02 00:00:00 19.8 3 Sur 7 Sudeste 0 1009.9 -- 65
2020-09-01 23:00:00 20.2 3 Sur 12 Sudoeste 0 1009.8 -- 64
2020-09-01 22:00:00 20.6 8 Sur 16 Sudoeste 0 1009.5 -- 64
2020-09-01 21:00:00 22.9 10 Sudoeste 21 Sudoeste 0 1009.1 -- 48
2020-09-01 20:00:00 25 12 Sudoeste 33 Sudoeste 0 1009 -- 41
2020-09-01 19:00:00 25.2 24 Sudoeste 39 Sudoeste 0 1009.1 -- 56
2020-09-01 18:00:00 26.5 25 Sudoeste 42 Sudoeste 0 1009.4 -- 48
2020-09-01 17:00:00 27.6 28 Sudoeste 42 Sudoeste 0 1009.7 -- 35
2020-09-01 16:00:00 29.5 21 Sudoeste 30 Sudoeste 0 1010.2 -- 26
2020-09-01 15:00:00 30.3 17 Sudoeste 32 Oeste 0 1010.9 -- 23
2020-09-01 14:00:00 29.9 17 Sudoeste 24 Sudoeste 0 1011.1 -- 24
2020-09-01 13:00:00 28 7 Sudoeste 17 Oeste 0 1011.8 -- 27
2020-09-01 12:00:00 25 4 Oeste 9 Oeste 0 1012.1 -- 31
2020-09-01 11:00:00 20.9 6 Nordeste 14 Norte 0 1012.1 -- 43
2020-09-01 10:00:00 19.1 8 Noroeste 14 Noroeste 0 1011.8 -- 49
2020-09-01 09:00:00 18.5 3 Noroeste 11 Noroeste 0 1011.5 -- 47
2020-09-01 08:00:00 19 8 Noroeste 17 Noroeste 0 1011.5 -- 43
2020-09-01 07:00:00 19.3 9 Noroeste 13 Noroeste 0 1011.3 -- 46
2020-09-01 06:00:00 20.5 9 Oeste 15 Oeste 0 1011.3 -- 46
2020-09-01 05:00:00 21.5 11 Oeste 17 Oeste 0 1011.5 -- 58
2020-09-01 04:00:00 21.7 12 Sudoeste 24 Sudoeste 0 1011.7 -- 64
2020-09-01 03:00:00 22.3 16 Sudoeste 24 Sudoeste 0 1012 -- 61
2020-09-01 02:00:00 21.3 8 Sur 16 Sur 0 1012.5 -- 54
2020-09-01 01:00:00 23 8 Sudoeste 17 Sudoeste 0 1012.6 -- 45
2020-09-01 00:00:00 24.7 12 Sudoeste 18 Oeste 0 1012.4 -- 40
2020-08-31 23:00:00 25.1 13 Oeste 19 Sudoeste 0 1012.1 -- 46
2020-08-31 22:00:00 25.6 13 Sudoeste 25 Oeste 0 1011.5 -- 43
2020-08-31 21:00:00 25.9 17 Sudoeste 30 Sudoeste 0 1010.9 -- 42
2020-08-31 20:00:00 28.3 15 Sudoeste 30 Oeste 0 1010.7 -- 36
2020-08-31 19:00:00 29.5 21 Sudoeste 33 Sudoeste 0 1010.8 -- 31
2020-08-31 18:00:00 31.1 21 Sudoeste 28 Sudoeste 0 1010.9 -- 29
2020-08-31 17:00:00 31.9 19 Sudoeste 28 Sudoeste 0 1011.5 -- 27
2020-08-31 16:00:00 32.5 18 Sudoeste 28 Sudoeste 0 1012 -- 28
2020-08-31 15:00:00 32.5 14 Sur 28 Sur 0 1012.7 -- 22
2020-08-31 14:00:00 31.6 5 Sudeste 19 Este 0 1013.5 -- 28
2020-08-31 13:00:00 29.8 6 Este 19 Este 0 1014 -- 31
2020-08-31 12:00:00 28.1 8 Este 17 Este 0 1014.5 -- 37
2020-08-31 11:00:00 24.8 6 Nordeste 14 Este 0 1014.6 -- 42
2020-08-31 10:00:00 21.1 6 Nordeste 12 Nordeste 0 1014.4 -- 34
2020-08-31 09:00:00 17.7 5 Norte 8 Nordeste 0 1013.7 -- 42
2020-08-31 08:00:00 16.3 5 Nordeste 8 Norte 0 1013 -- 47
2020-08-31 07:00:00 17.3 6 Nordeste 10 Nordeste 0 1012.3 -- 48
2020-08-31 06:00:00 17.9 7 Nordeste 10 Norte 0 1012.4 -- 45
2020-08-31 05:00:00 17.8 3 Nordeste 12 Nordeste 0 1012.5 -- 47
2020-08-31 04:00:00 19.1 7 Norte 10 Norte 0 1012.3 -- 44
2020-08-31 03:00:00 20.1 3 Nordeste 10 Este 0 1012.3 -- 49
2020-08-31 02:00:00 21.4 6 Nordeste 10 Sudeste 0 1012 -- 36
2020-08-31 01:00:00 22.9 4 Nordeste 24 Norte 0 1011.6 -- 23
2020-08-31 00:00:00 25.9 18 Norte 30 Noroeste 0 1010.9 -- 19
2020-08-30 23:00:00 24.7 12 Noroeste 18 Noroeste 0 1010.5 -- 20
2020-08-30 22:00:00 25.9 6 Oeste 12 Oeste 0 1009.8 -- 18
2020-08-30 21:00:00 28 8 Oeste 19 Oeste 0 1008.8 -- 19
2020-08-30 20:00:00 28.8 15 Sudoeste 28 Sudoeste 0 1008.2 -- 26
2020-08-30 19:00:00 31.1 20 Sudoeste 31 Sudoeste 0 1007.8 -- 19
2020-08-30 18:00:00 33.1 14 Sudoeste 24 Sudoeste 0 1007.7 -- 16
2020-08-30 17:00:00 33.8 9 Oeste 24 Oeste 0 1007.9 -- 14
2020-08-30 16:00:00 33.2 9 Norte 21 Norte 0 1008.4 -- 14
2020-08-30 15:00:00 32.3 9 Este 25 Este 0 1008.8 -- 14
2020-08-30 14:00:00 31.4 9 Nordeste 22 Este 0 1009.3 -- 15
2020-08-30 13:00:00 29.9 12 Este 24 Este 0 1009.5 -- 18
2020-08-30 12:00:00 28.4 13 Nordeste 24 Nordeste 0 1009.6 -- 21
2020-08-30 11:00:00 26 13 Nordeste 24 Nordeste 0 1009.7 -- 25
2020-08-30 10:00:00 20.7 9 Noroeste 27 Noroeste 0 1009.5 -- 42
2020-08-30 09:00:00 19.2 13 Norte 24 Noroeste 0 1009.3 -- 46
2020-08-30 08:00:00 19.2 13 Norte 22 Norte 0 1008.9 -- 46
2020-08-30 07:00:00 19.3 10 Norte 19 Norte 0 1008.3 -- 48
2020-08-30 06:00:00 19.9 6 Norte 22 Norte 0 1008.2 -- 48
2020-08-30 05:00:00 20.1 6 Noroeste 18 Norte 0 1008.5 -- 52
2020-08-30 04:00:00 20.7 5 Noroeste 19 Oeste 0 1008.6 -- 51
2020-08-30 03:00:00 21.4 8 Oeste 24 Oeste 0 1008.9 -- 49
2020-08-30 02:00:00 21.5 8 Noroeste 30 Oeste 0 1008.9 -- 45
2020-08-30 01:00:00 21.9 14 Noroeste 28 Oeste 0 1008.9 -- 30
2020-08-30 00:00:00 23.4 6 Noroeste 21 Noroeste 0 1008.5 -- 23
2020-08-29 23:00:00 24.5 8 Noroeste 17 Noroeste 0 1007.9 -- 22
2020-08-29 22:00:00 26.4 6 Norte 26 Norte 0 1006.9 -- 20
2020-08-29 21:00:00 27.8 11 Norte 31 Nordeste 0 1006 -- 18
2020-08-29 20:00:00 29.1 12 Norte 39 Noroeste 0 1005.6 -- 18
2020-08-29 19:00:00 30.1 18 Norte 44 Noroeste 0 1005.3 -- 17
2020-08-29 18:00:00 30.4 18 Noroeste 41 Noroeste 0 1005.5 -- 17
2020-08-29 17:00:00 30.3 14 Noroeste 41 Norte 0 1005.7 -- 18
2020-08-29 16:00:00 29.6 20 Norte 42 Nordeste 0 1006.1 -- 18
2020-08-29 15:00:00 28.6 16 Norte 41 Norte 0 1006.8 -- 22
2020-08-29 14:00:00 27 14 Noroeste 41 Norte 0 1007.2 -- 26
2020-08-29 13:00:00 25.3 16 Noroeste 42 Oeste 0 1007.8 -- 30
2020-08-29 12:00:00 23.1 16 Noroeste 31 Noroeste 0 1008.2 -- 34
2020-08-29 11:00:00 20.9 11 Norte 31 Norte 0 1008.7 -- 43
2020-08-29 10:00:00 18.7 14 Noroeste 28 Noroeste 0 1008.3 -- 53
2020-08-29 09:00:00 16.8 10 Noroeste 20 Noroeste 0 1008.3 -- 60
2020-08-29 08:00:00 16.4 10 Noroeste 23 Noroeste 0 1007.8 -- 63
2020-08-29 07:00:00 16.9 5 Noroeste 23 Oeste 0 1007.4 -- 61
2020-08-29 06:00:00 17.4 6 Noroeste 26 Oeste 0 1007 -- 57
2020-08-29 05:00:00 18 8 Norte 34 Noroeste 0 1006.8 -- 56
2020-08-29 04:00:00 18.6 10 Oeste 32 Noroeste 0 1007 -- 55
2020-08-29 03:00:00 19.4 7 Norte 30 Noroeste 0 1007.3 -- 51
2020-08-29 02:00:00 20.5 15 Noroeste 39 Oeste 0 1007.6 -- 47
2020-08-29 01:00:00 22.1 16 Noroeste 39 Oeste 0 1007.4 -- 42
2020-08-29 00:00:00 23.9 17 Noroeste 37 Noroeste 0 1007.3 -- 33
2020-08-28 23:00:00 25.5 20 Noroeste 37 Noroeste 0 1007.1 -- 35
2020-08-28 22:00:00 27.1 19 Noroeste 34 Noroeste 0 1006.7 -- 22
2020-08-28 21:00:00 29.4 18 Noroeste 40 Noroeste 0 1006.3 -- 18
2020-08-28 20:00:00 31.7 22 Noroeste 42 Noroeste 0 1006.3 -- 23
2020-08-28 19:00:00 33.3 21 Noroeste 41 Noroeste 0 1006.3 -- 30
2020-08-28 18:00:00 34.3 24 Noroeste 45 Noroeste 0 1006.5 -- 30
2020-08-28 17:00:00 34.3 21 Noroeste 42 Oeste 0 1007 -- 34
2020-08-28 16:00:00 34.1 21 Noroeste 45 Noroeste 0 1007.5 -- 35
2020-08-28 15:00:00 33.9 18 Noroeste 40 Noroeste 0 1008.4 -- 35
2020-08-28 14:00:00 32 17 Noroeste 40 Noroeste 0 1009.2 -- 38
2020-08-28 13:00:00 29.8 17 Noroeste 44 Noroeste 0 1010 -- 43
2020-08-28 12:00:00 27.7 22 Noroeste 49 Noroeste 0 1010.4 -- 50
2020-08-28 11:00:00 24.4 17 Noroeste 43 Noroeste 0 1010.2 -- 61
2020-08-28 10:00:00 22.7 17 Noroeste 33 Noroeste 0 1010.3 -- 68
2020-08-28 09:00:00 20.8 15 Noroeste 29 Oeste 0 1010.1 -- 76
2020-08-28 08:00:00 20.3 6 Noroeste 34 Noroeste 0 1010 -- 78
2020-08-28 07:00:00 20.7 18 Noroeste 44 Noroeste 0 1009.5 -- 76
2020-08-28 06:00:00 20.9 17 Noroeste 33 Noroeste 0 1009.6 -- 75
2020-08-28 05:00:00 21.7 8 Oeste 31 Oeste 0 1010.1 -- 72
2020-08-28 04:00:00 22.6 9 Norte 24 Nordeste 0 1010.3 -- 68
2020-08-28 03:00:00 23.8 6 Noroeste 26 Oeste 0 1011 -- 65
2020-08-28 02:00:00 25 15 Noroeste 40 Noroeste 0 1011.4 -- 62
2020-08-28 01:00:00 27.3 20 Noroeste 38 Noroeste 0 1011.5 -- 53
2020-08-28 00:00:00 29.1 21 Noroeste 38 Noroeste 0 1011.5 -- 46
2020-08-27 23:00:00 29.7 17 Noroeste 27 Noroeste 0 1011.4 -- 38
2020-08-27 22:00:00 32.2 17 Noroeste 27 Noroeste 0 1010.9 -- 26
2020-08-27 21:00:00 33.9 14 Noroeste 23 Oeste 0 1010.6 -- 23
2020-08-27 20:00:00 33.9 10 Oeste 27 Oeste 0 1010.5 -- 32
2020-08-27 19:00:00 34.3 16 Sudoeste 26 Oeste 0 1010.8 -- 33
2020-08-27 18:00:00 35 18 Sudoeste 29 Sudoeste 0 1011.3 -- 35
2020-08-27 17:00:00 36 17 Sudoeste 29 Noroeste 0 1011.9 -- 32
2020-08-27 16:00:00 39.2 18 Oeste 34 Noroeste 0 1012.7 -- 19
2020-08-27 15:00:00 38 15 Noroeste 28 Noroeste 0 1013.2 -- 23
2020-08-27 14:00:00 36.1 9 Noroeste 25 Noroeste 0 1013.9 -- 26
2020-08-27 13:00:00 34.1 12 Noroeste 27 Noroeste 0 1014.6 -- 35
2020-08-27 12:00:00 31.6 11 Noroeste 23 Noroeste 0 1014.9 -- 42
2020-08-27 11:00:00 28.5 9 Noroeste 19 Norte 0 1014.8 -- 49
2020-08-27 10:00:00 25.2 10 Norte 23 Norte 0 1014.9 -- 59
2020-08-27 09:00:00 23.2 7 Nordeste 19 Nordeste 0 1014.9 -- 62
2020-08-27 08:00:00 23.3 6 Norte 17 Norte 0 1014.4 -- 62
2020-08-27 07:00:00 24.5 5 Norte 27 Noroeste 0 1014 -- 56
2020-08-27 06:00:00 25.3 13 Noroeste 26 Noroeste 0 1014 -- 51
2020-08-27 05:00:00 25.8 7 Norte 25 Noroeste 0 1014.2 -- 48
2020-08-27 04:00:00 24.9 9 Norte 17 Norte 0 1014.3 -- 47
2020-08-27 03:00:00 23.1 6 Noroeste 11 Noroeste 0 1014.8 -- 58
2020-08-27 02:00:00 22.8 0 Calma 5 Nordeste 0 1015 -- 68
2020-08-27 01:00:00 23.6 3 Nordeste 6 Sur 0 1015.1 -- 68
2020-08-27 00:00:00 23.8 2 Sudeste 9 Sur 0 1015.1 -- 66
2020-08-26 23:00:00 24.5 4 Sur 9 Sur 0 1014.9 -- 61
2020-08-26 22:00:00 26.1 5 Sur 8 Sudeste 0 1014.3 -- 50
2020-08-26 21:00:00 28.5 8 Sur 13 Sudoeste 0 1013.8 -- 43
2020-08-26 20:00:00 30.9 10 Sudoeste 27 Sudoeste 0 1013.7 -- 36
2020-08-26 19:00:00 31.4 17 Sudoeste 27 Sudoeste 0 1013.9 -- 36
2020-08-26 18:00:00 33.2 16 Sudoeste 24 Sudoeste 0 1013.9 -- 37
2020-08-26 17:00:00 33.8 17 Sudoeste 27 Sur 0 1014.3 -- 34
2020-08-26 16:00:00 34.7 14 Sudoeste 24 Sudoeste 0 1014.6 -- 35
2020-08-26 15:00:00 34.3 17 Sudoeste 29 Sur 0 1015.1 -- 32
2020-08-26 14:00:00 33.2 18 Sur 26 Sur 0 1015.5 -- 38
2020-08-26 13:00:00 32.1 12 Sur 21 Sudoeste 0 1015.9 -- 41
2020-08-26 12:00:00 30.2 11 Sur 18 Sudoeste 0 1016 -- 48
2020-08-26 11:00:00 27.7 6 Sudeste 9 Sudeste 0 1015.6 -- 50
2020-08-26 10:00:00 23.9 4 Nordeste 12 Norte 0 1015 -- 64
2020-08-26 09:00:00 20.9 6 Nordeste 10 Nordeste 0 1014.6 -- 68
2020-08-26 08:00:00 19.8 6 Nordeste 10 Nordeste 0 1014.2 -- 72
2020-08-26 07:00:00 20.4 5 Nordeste 9 Nordeste 0 1013.7 -- 70
2020-08-26 06:00:00 22.1 4 Norte 7 Norte 0 1013.2 -- 56
2020-08-26 05:00:00 21.8 3 Sur 5 Norte 0 1013.5 -- 61
2020-08-26 04:00:00 23.6 3 Nordeste 14 Norte 0 1013.3 -- 54
2020-08-26 03:00:00 26.1 5 Norte 13 Norte 0 1013.3 -- 43
2020-08-26 02:00:00 26.7 6 Noroeste 14 Oeste 0 1013.5 -- 42
2020-08-26 01:00:00 27.7 10 Oeste 18 Oeste 0 1013.4 -- 43
2020-08-26 00:00:00 26.4 2 Sudeste 11 Oeste 0 1013.2 -- 58
2020-08-25 23:00:00 28.1 8 Oeste 13 Oeste 0 1012.9 -- 48
2020-08-25 22:00:00 28.7 5 Sudoeste 23 Oeste 0 1012 -- 48
2020-08-25 21:00:00 29.6 15 Oeste 27 Oeste 0 1010.9 -- 46
2020-08-25 20:00:00 30 17 Sudoeste 29 Sudoeste 0 1010.6 -- 49
2020-08-25 19:00:00 31.5 19 Sudoeste 31 Sudoeste 0 1010.7 -- 45
2020-08-25 18:00:00 33.2 21 Sudoeste 30 Sudoeste 0 1010.9 -- 39
2020-08-25 17:00:00 33.9 19 Sudoeste 27 Sudoeste 0 1011.2 -- 38
2020-08-25 16:00:00 33.5 18 Sudoeste 26 Sudoeste 0 1011.7 -- 39
2020-08-25 15:00:00 33.3 16 Sudoeste 23 Sudoeste 0 1012.4 -- 40
2020-08-25 14:00:00 33.2 15 Sudoeste 22 Sur 0 1012.8 -- 41
2020-08-25 13:00:00 32.3 10 Oeste 17 Oeste 0 1012.9 -- 40
2020-08-25 12:00:00 30.5 3 Este 13 Noroeste 0 1013.1 -- 44
2020-08-25 11:00:00 28.1 5 Noroeste 12 Norte 0 1013 -- 51
2020-08-25 10:00:00 24.4 8 Nordeste 12 Nordeste 0 1012.8 -- 63
2020-08-25 09:00:00 21.1 6 Norte 10 Nordeste 0 1012.4 -- 74
2020-08-25 08:00:00 19.6 7 Nordeste 12 Nordeste 0 1012.1 -- 81
2020-08-25 07:00:00 20.2 6 Nordeste 8 Nordeste 0 1011.6 -- 84
2020-08-25 06:00:00 20.3 6 Nordeste 8 Nordeste 0 1011.6 -- 82
2020-08-25 05:00:00 21.2 3 Este 5 Nordeste 0 1011.7 -- 79
2020-08-25 04:00:00 21.3 4 Sur 9 Sur 0 1011.8 -- 83
2020-08-25 03:00:00 21.7 7 Sur 11 Sur 0 1011.8 -- 82
2020-08-25 02:00:00 22.3 8 Sudoeste 14 Sur 0 1012.1 -- 83
2020-08-25 01:00:00 22.7 7 Sur 10 Sur 0 1012 -- 80
2020-08-25 00:00:00 24.5 6 Oeste 16 Noroeste 0 1012.1 -- 67
2020-08-24 23:00:00 24.6 9 Sur 17 Oeste 0 1011.8 -- 71
2020-08-24 22:00:00 25.5 7 Sur 10 Sur 0 1011.1 -- 67
2020-08-24 21:00:00 28.1 7 Sur 22 Sudoeste 0 1010.5 -- 55
2020-08-24 20:00:00 29.7 15 Sudoeste 22 Sudoeste 0 1010.3 -- 46
2020-08-24 19:00:00 30.8 17 Sudoeste 27 Sudoeste 0 1010.7 -- 43
2020-08-24 18:00:00 32.6 17 Sudoeste 27 Sudoeste 0 1011 -- 37
2020-08-24 17:00:00 32.5 15 Sudoeste 26 Sudoeste 0 1011.3 -- 39
2020-08-24 16:00:00 32.2 14 Sudoeste 28 Sudoeste 0 1012 -- 41
2020-08-24 15:00:00 31.9 18 Sur 28 Sur 0 1012.5 -- 47
2020-08-24 14:00:00 30.9 13 Sudoeste 26 Sudoeste 0 1013 -- 43
2020-08-24 13:00:00 30.5 15 Sur 36 Sudoeste 0 1013.4 -- 40
2020-08-24 12:00:00 29.2 14 Sur 21 Sur 0 1013.3 -- 37
2020-08-24 11:00:00 26.3 5 Este 13 Sudeste 0 1013.3 -- 39
2020-08-24 10:00:00 23 7 Norte 21 Noroeste 0 1013.2 -- 51
2020-08-24 09:00:00 20.9 5 Norte 14 Norte 0 1012.8 -- 55
2020-08-24 08:00:00 20.1 4 Noroeste 15 Norte 0 1012.7 -- 58
2020-08-24 07:00:00 20.5 7 Norte 12 Nordeste 0 1012.3 -- 55
2020-08-24 06:00:00 21.5 8 Norte 15 Nordeste 0 1012.3 -- 52
2020-08-24 05:00:00 22.4 6 Noroeste 24 Noroeste 0 1012.2 -- 50
2020-08-24 04:00:00 23.3 12 Noroeste 24 Noroeste 0 1012.3 -- 46
2020-08-24 03:00:00 24.4 11 Noroeste 28 Noroeste 0 1012.5 -- 41
2020-08-24 02:00:00 25.4 15 Noroeste 28 Noroeste 0 1012.7 -- 38
2020-08-24 01:00:00 27.1 17 Noroeste 31 Noroeste 0 1013 -- 34
2020-08-24 00:00:00 27.9 17 Noroeste 23 Noroeste 0 1012.9 -- 30
2020-08-23 23:00:00 28.6 10 Noroeste 15 Noroeste 0 1012.6 -- 22
2020-08-23 22:00:00 30.2 10 Noroeste 13 Noroeste 0 1012.1 -- 21
2020-08-23 21:00:00 32.3 10 Oeste 23 Sudoeste 0 1011.7 -- 24
2020-08-23 20:00:00 35.8 15 Oeste 30 Noroeste 0 1011.7 -- 20
2020-08-23 19:00:00 38 14 Noroeste 36 Norte 0 1012.1 -- 12
2020-08-23 18:00:00 38.4 15 Noroeste 36 Noroeste 0 1012.4 -- 11
2020-08-23 17:00:00 38.4 18 Noroeste 35 Noroeste 0 1012.9 -- 12
2020-08-23 16:00:00 38.4 18 Noroeste 40 Oeste 0 1013.8 -- 11
2020-08-23 15:00:00 37.5 17 Noroeste 33 Norte 0 1014.4 -- 13
2020-08-23 14:00:00 36.1 15 Oeste 29 Noroeste 0 1014.8 -- 17
2020-08-23 13:00:00 33.5 10 Noroeste 20 Noroeste 0 1015.9 -- 25
2020-08-23 12:00:00 30.1 8 Noroeste 18 Noroeste 0 1016.3 -- 30
2020-08-23 11:00:00 26 8 Norte 22 Norte 0 1016.5 -- 39
2020-08-23 10:00:00 22.4 12 Norte 22 Norte 0 1016.4 -- 47
2020-08-23 09:00:00 19.6 7 Norte 20 Noroeste 0 1016.6 -- 56
2020-08-23 08:00:00 19.1 9 Noroeste 24 Noroeste 0 1016.3 -- 57
2020-08-23 07:00:00 19.9 7 Norte 30 Noroeste 0 1016.1 -- 55
2020-08-23 06:00:00 21 12 Noroeste 22 Noroeste 0 1015.9 -- 53
2020-08-23 05:00:00 22.5 10 Noroeste 29 Noroeste 0 1016 -- 49
2020-08-23 04:00:00 23.5 15 Noroeste 30 Noroeste 0 1016.2 -- 41
2020-08-23 03:00:00 24.7 14 Noroeste 27 Noroeste 0 1016.5 -- 33
2020-08-23 02:00:00 26.1 13 Noroeste 28 Noroeste 0 1016.7 -- 28
2020-08-23 01:00:00 26.9 11 Noroeste 23 Noroeste 0 1016.5 -- 26
2020-08-23 00:00:00 27.8 11 Noroeste 22 Noroeste 0 1016.5 -- 23
2020-08-22 23:00:00 28.2 11 Noroeste 14 Noroeste 0 1016.1 -- 23
2020-08-22 22:00:00 29.5 4 Oeste 17 Oeste 0 1015.5 -- 22
2020-08-22 21:00:00 31.5 13 Oeste 24 Oeste 0 1014.7 -- 24
2020-08-22 20:00:00 32 15 Sudoeste 23 Sudoeste 0 1014.7 -- 27
2020-08-22 19:00:00 33.4 15 Sudoeste 25 Sudoeste 0 1014.8 -- 28
2020-08-22 18:00:00 34 18 Sudoeste 28 Sudoeste 0 1015.2 -- 26
2020-08-22 17:00:00 33.1 19 Sudoeste 30 Sudoeste 0 1015.9 -- 30
2020-08-22 16:00:00 35.5 15 Sudoeste 25 Sur 0 1016.4 -- 25
2020-08-22 15:00:00 35 14 Sudoeste 26 Oeste 0 1017 -- 29
2020-08-22 14:00:00 33.6 13 Oeste 26 Oeste 0 1017.5 -- 32
2020-08-22 13:00:00 32.5 10 Oeste 19 Noroeste 0 1018 -- 34
2020-08-22 12:00:00 30.7 7 Norte 18 Noroeste 0 1018.4 -- 36
2020-08-22 11:00:00 27.9 12 Noroeste 21 Oeste 0 1018.4 -- 41
2020-08-22 10:00:00 24.6 8 Noroeste 24 Noroeste 0 1018.1 -- 51
2020-08-22 09:00:00 22.3 14 Noroeste 24 Noroeste 0 1017.9 -- 60
2020-08-22 08:00:00 21.5 12 Noroeste 19 Noroeste 0 1017.2 -- 62
2020-08-22 07:00:00 22 14 Noroeste 22 Noroeste 0 1016.8 -- 59
2020-08-22 06:00:00 22.8 10 Noroeste 19 Noroeste 0 1016.6 -- 56
2020-08-22 05:00:00 23.7 4 Noroeste 15 Norte 0 1016.4 -- 53
2020-08-22 04:00:00 24.3 4 Nordeste 21 Noroeste 0 1016.1 -- 52
2020-08-22 03:00:00 24.9 11 Noroeste 25 Noroeste 0 1015.9 -- 54
2020-08-22 02:00:00 26.1 13 Noroeste 26 Noroeste 0 1015.6 -- 51
2020-08-22 01:00:00 27.1 9 Noroeste 26 Noroeste 0 1015.3 -- 51
2020-08-22 00:00:00 27.3 9 Noroeste 15 Noroeste 0 1014.9 -- 59
2020-08-21 23:00:00 26.8 6 Noroeste 17 Noroeste 0 1014.4 -- 64
2020-08-21 22:00:00 27.4 14 Oeste 19 Oeste 0 1013.7 -- 61
2020-08-21 21:00:00 27.7 13 Oeste 24 Oeste 0 1013.3 -- 61
2020-08-21 20:00:00 28.3 17 Sudoeste 31 Sudoeste 0 1013.1 -- 60
2020-08-21 19:00:00 28.9 21 Sudoeste 33 Sudoeste 0 1013.3 -- 58
2020-08-21 18:00:00 29.3 23 Sudoeste 34 Sudoeste 0 1013.1 -- 55
2020-08-21 17:00:00 29.5 21 Sudoeste 34 Sudoeste 0 1013.1 -- 54
2020-08-21 16:00:00 28.7 25 Sudoeste 34 Sudoeste 0 1013.4 -- 57
2020-08-21 15:00:00 29.5 20 Sudoeste 29 Sudoeste 0 1013.7 -- 55
2020-08-21 14:00:00 31.3 15 Sudoeste 24 Sudoeste 0 1013.6 -- 51
2020-08-21 13:00:00 28.8 -- -- 22 Oeste 0 1013.6 -- 59
2020-08-21 12:00:00 28.6 8 Oeste 19 Sur 0 1013.7 -- 58
2020-08-21 11:00:00 26.9 6 Oeste 14 Oeste 0 1013.4 -- 61
2020-08-21 10:00:00 24.7 5 Nordeste 9 Norte 0 1012.8 -- 73
2020-08-21 09:00:00 21.6 3 Nordeste 8 Norte 0 1012.3 -- 83
2020-08-21 08:00:00 21.1 5 Noroeste 13 Noroeste 0 1011.7 -- 88
2020-08-21 07:00:00 21.2 10 Noroeste 14 Noroeste 0 1011 -- 87
2020-08-21 06:00:00 21.4 11 Oeste 15 Oeste 0 1010.8 -- 86
2020-08-21 05:00:00 21.7 7 Noroeste 12 Noroeste 0 1010.6 -- 83
2020-08-21 04:00:00 22.5 5 Noroeste 16 Noroeste 0 1010.4 -- 80
2020-08-21 03:00:00 23.4 3 Noroeste 19 Noroeste 0 1010.3 -- 75
2020-08-21 02:00:00 24.2 12 Noroeste 20 Noroeste 0 1010 -- 69
2020-08-21 01:00:00 24.1 12 Noroeste 17 Noroeste 0 1009.6 -- 68
2020-08-21 00:00:00 23.4 6 Noroeste 10 Noroeste 0 1009.3 -- 71